KMMT/MMT METAR and TAF weather

Enter ICAO airport designator
Station Type Date Time Source
KMMT METAR 2022/12/04 03:55 UTC NOAA

KMMT 040355Z AUTO 27005KT 10SM OVC011 16/16 A3023 RMK AO2 SLP239 T01590157 $


Station Type Date Time Source
KMMT Decoded METAR 2022/12/04 03:55 UTC NOAA

McEntire Air National Guard Weather Facility Base, SC, United States (KMMT) 33-55N 080-48W
Dec 03, 2022 - 10:55 PM EST / 2022.12.04 0355 UTC
Wind: from the W (270 degrees) at 6 MPH (5 KT):0
Visibility: 10 mile(s):0
Sky conditions: overcast
Temperature: 60.6 F (15.9 C)
Dew Point: 60.3 F (15.7 C)
Relative Humidity: 98%
Pressure (altimeter): 30.23 in. Hg (1023 hPa)
ob: KMMT 040355Z AUTO 27005KT 10SM OVC011 16/16 A3023 RMK AO2 SLP239 T01590157
cycle: 4

Station Type Date Time Source
KMMT TAF 2022/12/04 03:09 UTC NOAA

TAF TAF
AMD KMMT 040305Z 0403/0505 VRB06KT 9000 BR BKN015 QNH3022INS
TEMPO 0403/0413 8000 BR BKN008
BECMG 0412/0413 04006KT 9000 BR SCT011 QNH3024INS
BECMG 0413/0414 VRB06KT 9999 NSW FEW025 QNH3015INS TX19/0420Z TN08/0405Z

Example: see airport list